Time;durP1;ratioP1;P1;durP2;ratioP2;P2;SDS_P1;SDS_P2;PMS_P1;PMS_P2;Temp;Humidity;BMP_temperature;BMP_pressure;BME280_temperature;BME280_humidity;BME280_pressure;Samples;Min_cycle;Max_cycle;Signal;HPM_P1;HPM_P2
2023/01/17 00:00:10;;;;;;;2.50;0.80;;;;;;;-144.47;70.28;52953.41;5028749;28;20112;-66
2023/01/17 00:02:35;;;;;;;2.53;1.20;;;;;;;-144.47;70.96;52949.44;5029346;28;20033;-65
2023/01/17 00:10:29;;;;;;;2.25;0.85;;;;;;;-144.47;72.10;52975.25;5032324;28;20402;-65
2023/01/17 00:13:00;;;;;;;3.75;0.77;;;;;;;-144.47;72.30;52943.47;5032526;28;20096;-65
2023/01/17 00:15:28;;;;;;;2.97;0.90;;;;;;;-144.47;72.60;53011.00;5031465;28;20028;-65
2023/01/17 00:17:53;;;;;;;1.25;0.80;;;;;;;-144.47;72.81;52945.47;5031645;28;20029;-65
2023/01/17 00:26:04;;;;;;;6.93;0.77;;;;;;;-144.47;74.53;52973.28;5032582;28;20622;-66
2023/01/17 01:35:25;;;;;;;0.35;0.35;;;;;;;-144.47;73.48;52967.31;5031258;28;20399;-65
2023/01/17 01:37:50;;;;;;;0.47;0.47;;;;;;;-144.47;73.24;52975.25;5030746;28;20057;-67
2023/01/17 01:40:18;;;;;;;1.00;0.50;;;;;;;-144.47;73.39;52949.44;5031106;28;20060;-66
2023/01/17 01:42:54;;;;;;;3.05;0.57;;;;;;;-144.47;73.28;52985.19;5031434;28;20656;-63
2023/01/17 01:45:26;;;;;;;1.55;0.60;;;;;;;-144.47;73.03;52967.31;5031111;28;20033;-65
2023/01/17 01:48:00;;;;;;;0.82;0.40;;;;;;;-144.47;73.09;52957.38;5030686;28;20036;-66
2023/01/17 01:50:27;;;;;;;0.38;0.38;;;;;;;-144.47;73.25;52983.22;5029077;28;20100;-63
2023/01/17 01:52:56;;;;;;;0.90;0.60;;;;;;;-144.47;72.90;52979.22;5028928;28;20383;-67
2023/01/17 01:55:33;;;;;;;1.48;0.80;;;;;;;-144.47;72.87;52933.56;5030229;28;20022;-66
2023/01/17 01:58:03;;;;;;;0.52;0.40;;;;;;;-144.47;73.82;52967.31;5030201;28;20114;-66
2023/01/17 02:00:32;;;;;;;0.57;0.50;;;;;;;-144.47;74.80;52973.28;5030345;28;20037;-63
2023/01/17 02:03:03;;;;;;;0.30;0.30;;;;;;;-144.47;75.53;52977.25;5030453;28;20025;-67
2023/01/17 02:05:29;;;;;;;0.40;0.40;;;;;;;-144.47;75.83;52983.22;5031006;28;20024;-64
2023/01/17 02:08:06;;;;;;;0.43;0.38;;;;;;;-144.47;76.67;52969.31;5030540;28;20029;-67
2023/01/17 02:10:37;;;;;;;0.50;0.30;;;;;;;-144.47;77.13;52965.34;5030222;28;20438;-65
2023/01/17 02:13:03;;;;;;;0.40;0.40;;;;;;;-144.47;77.65;52961.34;5028983;28;20021;-66
2023/01/17 02:15:44;;;;;;;0.40;0.40;;;;;;;-144.47;78.17;52969.31;5030624;28;20470;-67
2023/01/17 02:18:28;;;;;;;0.63;0.40;;;;;;;-144.47;78.56;52953.41;5019493;28;20013;-66
2023/01/17 02:21:09;;;;;;;0.57;0.43;;;;;;;-144.47;78.46;52953.41;5030605;28;20495;-66
2023/01/17 02:24:11;;;;;;;0.65;0.50;;;;;;;-144.47;78.35;52987.19;5030588;28;20133;-67
2023/01/17 02:26:57;;;;;;;0.30;0.30;;;;;;;-144.47;77.79;52969.31;5022449;28;20025;-66
2023/01/17 02:29:45;;;;;;;0.40;0.40;;;;;;;-144.47;78.08;52971.28;5030053;28;20036;-66
2023/01/17 02:32:18;;;;;;;0.30;0.30;;;;;;;-144.47;77.76;52963.34;5028382;28;20025;-65
2023/01/17 02:35:22;;;;;;;0.50;0.50;;;;;;;-144.47;76.25;52981.22;5030753;28;20474;-67
2023/01/17 02:38:01;;;;;;;0.85;0.50;;;;;;;-144.47;75.96;52967.31;5028006;28;20041;-66
2023/01/17 02:40:37;;;;;;;0.45;0.43;;;;;;;-144.47;75.54;52955.41;5029978;28;20498;-65
2023/01/17 02:43:08;;;;;;;0.30;0.30;;;;;;;-144.47;75.69;52971.28;5030019;28;20041;-66
2023/01/17 02:45:33;;;;;;;0.40;0.40;;;;;;;-144.47;75.97;53003.06;5030469;28;20052;-67
2023/01/17 02:47:59;;;;;;;0.30;0.30;;;;;;;-144.47;76.50;52963.34;5029381;28;20060;-65
2023/01/17 02:50:37;;;;;;;0.30;0.30;;;;;;;-144.47;78.07;52973.28;5029998;28;20072;-67
2023/01/17 02:53:24;;;;;;;4.80;0.40;;;;;;;-144.47;78.07;52983.22;5027290;28;20025;-65
2023/01/17 02:56:27;;;;;;;0.38;0.35;;;;;;;-144.47;78.31;52959.38;5029629;28;20098;-66
2023/01/17 02:59:20;;;;;;;1.23;0.50;;;;;;;-144.47;77.85;52975.25;4967698;28;20027;-67
2023/01/17 03:01:57;;;;;;;0.30;0.30;;;;;;;-144.47;76.73;53007.03;5021171;28;20037;-66
2023/01/17 03:04:40;;;;;;;0.32;0.32;;;;;;;-144.47;77.67;52975.25;5029589;28;20074;-63
2023/01/17 03:07:15;;;;;;;0.55;0.50;;;;;;;-144.47;78.39;52995.13;5029593;28;20109;-66
2023/01/17 03:09:42;;;;;;;0.30;0.30;;;;;;;-144.47;78.03;52969.31;5019410;28;20504;-67
2023/01/17 03:12:08;;;;;;;1.25;0.50;;;;;;;-144.47;78.50;52975.25;5029453;28;20053;-65
2023/01/17 03:14:33;;;;;;;0.40;0.40;;;;;;;-144.47;79.14;52955.41;5029567;28;20032;-67
2023/01/17 03:16:59;;;;;;;1.08;0.40;;;;;;;-144.47;79.51;52999.09;5028918;28;20029;-65
2023/01/17 03:19:24;;;;;;;2.38;0.68;;;;;;;-144.47;79.54;53005.06;5029307;28;20021;-66
2023/01/17 03:21:50;;;;;;;1.00;0.40;;;;;;;-144.47;79.76;52989.16;5029199;28;20021;-65
2023/01/17 03:24:15;;;;;;;0.30;0.30;;;;;;;-144.47;79.51;52951.44;5029245;28;20025;-65
2023/01/17 03:26:43;;;;;;;0.30;0.30;;;;;;;-144.47;79.95;52995.13;5028717;28;20041;-66
2023/01/17 03:29:09;;;;;;;5.82;0.93;;;;;;;-144.47;80.10;52981.22;5028536;28;20099;-62
2023/01/17 03:31:34;;;;;;;0.40;0.40;;;;;;;-144.47;79.66;52969.31;5029006;28;20446;-66
2023/01/17 03:34:00;;;;;;;0.30;0.30;;;;;;;-144.47;79.39;52971.28;5029363;28;20043;-64
2023/01/17 03:36:25;;;;;;;0.30;0.30;;;;;;;-144.47;79.63;52981.22;5029234;28;20073;-65
2023/01/17 03:38:50;;;;;;;0.40;0.40;;;;;;;-144.47;79.57;52975.25;5029197;28;20426;-64
2023/01/17 03:41:16;;;;;;;0.40;0.40;;;;;;;-144.47;78.13;52959.38;5028817;28;20033;-63
2023/01/17 03:43:41;;;;;;;0.40;0.40;;;;;;;-144.47;77.38;52991.16;5031353;28;20060;-66
2023/01/17 03:46:17;;;;;;;0.43;0.43;;;;;;;-144.47;77.30;52979.22;5032884;28;20124;-63
2023/01/17 03:48:43;;;;;;;1.08;0.43;;;;;;;-144.47;76.90;52987.19;5032853;28;20112;-65
2023/01/17 03:51:08;;;;;;;0.68;0.30;;;;;;;-144.47;76.93;52975.25;5031270;28;20469;-65
2023/01/17 03:53:33;;;;;;;0.30;0.30;;;;;;;-144.47;76.67;52975.25;5031446;28;20024;-66
2023/01/17 03:55:59;;;;;;;2.25;0.47;;;;;;;-144.47;76.93;52995.13;5032432;28;20025;-64
2023/01/17 03:58:24;;;;;;;0.95;0.40;;;;;;;-144.47;76.08;52939.50;5034864;28;20539;-65
2023/01/17 04:00:49;;;;;;;0.40;0.40;;;;;;;-144.47;75.76;52979.22;5031722;28;20029;-66
2023/01/17 04:03:15;;;;;;;0.38;0.38;;;;;;;-144.47;75.87;52999.09;5033438;28;20025;-65
2023/01/17 04:05:40;;;;;;;0.60;0.50;;;;;;;-144.47;76.12;52967.31;5032468;28;20029;-65
2023/01/17 04:08:06;;;;;;;0.60;0.40;;;;;;;-144.47;75.91;52959.38;5032581;28;20103;-63
2023/01/17 04:10:31;;;;;;;0.90;0.50;;;;;;;-144.47;76.08;52989.16;5032098;28;20025;-65
2023/01/17 04:12:57;;;;;;;0.30;0.30;;;;;;;-144.47;76.04;52967.31;5032702;28;20100;-65
2023/01/17 04:15:22;;;;;;;0.98;0.50;;;;;;;-144.47;76.33;52969.31;5032308;28;20061;-66
2023/01/17 04:17:47;;;;;;;0.50;0.50;;;;;;;-144.47;76.27;52971.28;5032532;28;20104;-65
2023/01/17 04:20:17;;;;;;;0.77;0.50;;;;;;;-144.47;75.96;52981.22;5032368;28;20100;-66
2023/01/17 04:22:43;;;;;;;0.70;0.50;;;;;;;-144.47;76.17;52987.19;5032768;28;20029;-65
2023/01/17 04:25:08;;;;;;;0.40;0.40;;;;;;;-144.47;75.78;52983.22;5032422;28;20468;-65
2023/01/17 04:27:34;;;;;;;0.43;0.43;;;;;;;-144.47;76.06;52973.28;5031998;28;20435;-66
2023/01/17 04:29:59;;;;;;;2.45;0.45;;;;;;;-144.47;76.18;52979.22;5031403;28;20025;-66
2023/01/17 04:32:24;;;;;;;1.48;0.60;;;;;;;-144.47;76.11;52985.19;5030934;28;20112;-66
2023/01/17 04:34:50;;;;;;;0.40;0.40;;;;;;;-144.47;76.20;52995.13;5031789;28;20029;-67
2023/01/17 04:37:15;;;;;;;0.45;0.40;;;;;;;-144.47;76.19;52979.22;5032289;28;20033;-62
2023/01/17 04:39:40;;;;;;;1.15;0.70;;;;;;;-144.47;76.45;52983.22;5032056;28;20076;-63
2023/01/17 04:42:06;;;;;;;0.52;0.52;;;;;;;-144.47;76.49;52975.25;5032211;28;20407;-67
2023/01/17 04:44:31;;;;;;;0.55;0.55;;;;;;;-144.47;76.29;52999.09;5031941;28;20471;-65
2023/01/17 04:46:56;;;;;;;1.23;0.60;;;;;;;-144.47;76.11;53005.06;5031985;28;20029;-63
2023/01/17 04:49:22;;;;;;;0.50;0.50;;;;;;;-144.47;75.63;52985.19;5031554;28;20048;-66
2023/01/17 04:51:47;;;;;;;0.50;0.50;;;;;;;-144.47;75.86;52963.34;5031645;28;20032;-65
2023/01/17 04:54:13;;;;;;;1.67;0.65;;;;;;;-144.47;75.75;52991.16;5029278;28;20605;-66
2023/01/17 04:56:38;;;;;;;0.50;0.40;;;;;;;-144.47;75.65;52947.47;5031053;28;20059;-65
2023/01/17 04:59:04;;;;;;;1.75;0.80;;;;;;;-144.47;75.50;52999.09;5031727;28;20025;-63
2023/01/17 05:01:29;;;;;;;5.40;1.00;;;;;;;-144.47;75.31;52987.19;5030699;28;20021;-66
2023/01/17 05:03:54;;;;;;;1.23;0.65;;;;;;;-144.47;75.14;52975.25;5031723;28;20029;-66
2023/01/17 05:06:20;;;;;;;0.68;0.57;;;;;;;-144.47;75.12;53007.03;5031653;28;20418;-67
2023/01/17 05:08:45;;;;;;;0.80;0.52;;;;;;;-144.47;75.36;52985.19;5031524;28;20037;-67
2023/01/17 05:11:10;;;;;;;2.50;0.80;;;;;;;-144.47;75.40;52981.22;5031672;28;20690;-66
2023/01/17 05:13:37;;;;;;;0.55;0.45;;;;;;;-144.47;75.18;52975.25;5031652;28;20471;-68
2023/01/17 05:16:02;;;;;;;0.80;0.50;;;;;;;-144.47;75.32;52993.13;5031915;28;20021;-65
2023/01/17 05:18:28;;;;;;;2.60;0.70;;;;;;;-144.47;75.10;52969.31;5031438;28;20025;-66
2023/01/17 05:20:53;;;;;;;0.70;0.60;;;;;;;-144.47;74.81;52991.16;5032102;28;20017;-63
2023/01/17 05:23:19;;;;;;;2.70;0.93;;;;;;;-144.47;75.07;52971.28;5031376;28;20399;-66
2023/01/17 05:25:44;;;;;;;2.75;0.63;;;;;;;-144.47;75.21;52995.13;5030495;28;20033;-65
2023/01/17 05:28:11;;;;;;;1.33;0.88;;;;;;;-144.47;74.89;52961.34;5027642;28;20044;-66
2023/01/17 05:30:36;;;;;;;0.63;0.55;;;;;;;-144.47;74.64;52985.19;5025495;28;20025;-67
2023/01/17 05:33:02;;;;;;;0.57;0.52;;;;;;;-144.47;74.29;52971.28;5031134;28;20036;-65
2023/01/17 05:35:31;;;;;;;2.35;0.98;;;;;;;-144.47;74.68;52999.09;5030641;28;20034;-65
2023/01/17 05:37:56;;;;;;;0.80;0.70;;;;;;;-144.47;74.58;52987.19;5030985;28;20017;-66
2023/01/17 05:40:25;;;;;;;1.30;0.60;;;;;;;-144.47;74.23;52965.34;5051106;22;20041;-66
2023/01/17 05:42:52;;;;;;;2.10;0.80;;;;;;;-144.47;74.55;52979.22;5028485;28;20112;-66
2023/01/17 05:45:21;;;;;;;8.75;0.93;;;;;;;-144.47;74.71;52967.31;5027980;28;20048;-65
2023/01/17 05:47:49;;;;;;;1.83;0.75;;;;;;;-144.47;74.99;52985.19;5026399;28;20065;-65
2023/01/17 05:50:17;;;;;;;3.92;1.25;;;;;;;-144.47;74.64;52947.47;5028239;28;20027;-65
2023/01/17 05:52:49;;;;;;;3.35;0.90;;;;;;;-144.47;74.59;52971.28;5029273;28;20047;-66
2023/01/17 05:55:15;;;;;;;2.63;1.00;;;;;;;-144.47;74.66;52973.28;5026365;28;20129;-65
2023/01/17 05:57:40;;;;;;;1.05;0.60;;;;;;;-144.47;74.57;52997.09;5028983;28;20479;-66
2023/01/17 06:00:08;;;;;;;1.10;0.68;;;;;;;-144.47;74.22;52995.13;5028233;28;20025;-65
2023/01/17 06:02:33;;;;;;;2.15;0.85;;;;;;;-144.47;74.31;53007.03;5017452;28;20441;-67
2023/01/17 06:04:59;;;;;;;0.98;0.68;;;;;;;-144.47;73.67;52987.19;5028538;28;20044;-65
2023/01/17 06:07:24;;;;;;;2.03;1.08;;;;;;;-144.47;73.52;52991.16;5027098;28;20506;-66
2023/01/17 06:09:49;;;;;;;0.93;0.80;;;;;;;-144.47;72.90;52959.38;5027597;28;20136;-65
2023/01/17 06:12:15;;;;;;;1.45;0.70;;;;;;;-144.47;72.97;52969.31;5028125;28;20029;-64
2023/01/17 06:14:40;;;;;;;3.20;1.27;;;;;;;-144.47;73.09;52981.22;5028255;28;20025;-67
2023/01/17 06:17:05;;;;;;;3.85;1.45;;;;;;;-144.47;73.11;53013.00;5027884;28;20560;-67
2023/01/17 06:19:31;;;;;;;3.90;1.23;;;;;;;-144.47;73.45;52979.22;5028600;28;20040;-68
2023/01/17 06:21:56;;;;;;;2.22;0.80;;;;;;;-144.47;73.52;52983.22;5028112;28;20040;-65
2023/01/17 06:24:21;;;;;;;2.25;1.15;;;;;;;-144.47;73.28;52955.41;5028346;28;20021;-66
2023/01/17 06:26:47;;;;;;;0.90;0.73;;;;;;;-144.47;72.49;52945.47;5027012;28;20036;-65
2023/01/17 06:29:12;;;;;;;4.28;1.33;;;;;;;-144.47;74.45;53026.91;5025565;28;20126;-68
2023/01/17 06:31:38;;;;;;;5.07;1.65;;;;;;;-144.47;72.22;52991.16;5027719;28;20514;-67
2023/01/17 06:34:03;;;;;;;2.72;1.05;;;;;;;-144.47;72.32;52993.13;5029378;28;20021;-67
2023/01/17 06:36:31;;;;;;;3.65;0.90;;;;;;;-144.47;72.19;52973.28;5027229;28;20025;-65
2023/01/17 06:38:56;;;;;;;2.55;1.10;;;;;;;-144.47;71.73;52965.34;5027742;28;20028;-68
2023/01/17 06:41:22;;;;;;;1.52;0.68;;;;;;;-144.47;71.47;52983.22;5027837;28;20038;-67
2023/01/17 06:43:48;;;;;;;1.00;0.75;;;;;;;-144.47;70.79;52983.22;5028515;28;20498;-66
2023/01/17 06:46:13;;;;;;;2.00;0.77;;;;;;;-144.47;70.45;52991.16;5028033;28;20040;-65
2023/01/17 06:48:39;;;;;;;1.33;1.00;;;;;;;-144.47;70.07;52955.41;5028093;28;20025;-66
2023/01/17 06:51:04;;;;;;;0.88;0.77;;;;;;;-144.47;70.15;52991.16;5015970;28;20026;-65
2023/01/17 06:53:29;;;;;;;2.22;0.85;;;;;;;-144.47;69.72;52981.22;5028298;28;20224;-65
2023/01/17 06:55:56;;;;;;;2.35;1.00;;;;;;;-144.47;69.44;52991.16;5027685;28;20037;-67
2023/01/17 06:58:22;;;;;;;1.90;1.02;;;;;;;-144.47;68.87;52975.25;5027716;28;20502;-67
2023/01/17 07:00:47;;;;;;;5.97;0.88;;;;;;;-144.47;68.25;52991.16;5030455;28;20065;-66
2023/01/17 07:03:19;;;;;;;0.75;0.70;;;;;;;-144.47;68.23;52977.25;5034869;28;20029;-67
2023/01/17 07:05:44;;;;;;;1.23;0.77;;;;;;;-144.47;68.37;52977.25;5035702;28;20093;-64
2023/01/17 07:08:10;;;;;;;1.88;0.70;;;;;;;-144.47;68.17;52983.22;5029358;28;20657;-68
2023/01/17 07:10:35;;;;;;;1.42;0.80;;;;;;;-144.47;68.26;52985.19;5028304;28;20147;-66
2023/01/17 07:13:00;;;;;;;2.90;1.10;;;;;;;-144.47;68.45;52995.13;5027916;28;20025;-67
2023/01/17 07:15:26;;;;;;;3.33;1.33;;;;;;;-144.47;68.49;52959.38;5027421;28;20127;-66
2023/01/17 07:17:51;;;;;;;1.13;0.60;;;;;;;-144.47;68.08;53007.03;5025975;28;20018;-66
2023/01/17 07:20:17;;;;;;;1.35;0.82;;;;;;;-144.47;68.13;52955.41;5027019;28;20033;-66
2023/01/17 07:22:45;;;;;;;1.88;0.80;;;;;;;-144.47;68.42;52981.22;5027861;28;20025;-66
2023/01/17 07:25:11;;;;;;;1.63;1.00;;;;;;;-144.47;68.45;52979.22;5027745;28;20053;-67
2023/01/17 07:27:36;;;;;;;1.15;0.80;;;;;;;-144.47;68.18;53005.06;5025071;28;20092;-66
2023/01/17 07:30:02;;;;;;;0.98;0.80;;;;;;;-144.47;67.82;52965.34;5026190;28;20033;-65
2023/01/17 07:32:28;;;;;;;2.47;1.15;;;;;;;-144.47;67.75;52943.47;5027939;28;20133;-66
2023/01/17 07:34:56;;;;;;;2.30;0.80;;;;;;;-144.47;67.20;52973.28;5025917;28;20141;-65
2023/01/17 07:37:21;;;;;;;2.03;1.10;;;;;;;-144.47;66.92;52985.19;5026615;28;20099;-66
2023/01/17 07:39:47;;;;;;;1.42;1.00;;;;;;;-144.47;67.75;52957.38;5024700;28;20025;-66
2023/01/17 07:42:12;;;;;;;4.25;1.00;;;;;;;-144.47;67.73;52969.31;5027562;28;20112;-67
2023/01/17 07:44:39;;;;;;;0.90;0.70;;;;;;;-144.47;67.73;52979.22;5028163;28;20029;-65
2023/01/17 07:47:05;;;;;;;1.77;0.80;;;;;;;-144.47;67.45;52975.25;5026716;28;20064;-65
2023/01/17 07:49:30;;;;;;;2.33;1.00;;;;;;;-144.47;67.32;52963.34;5023747;28;20041;-66
2023/01/17 07:51:56;;;;;;;16.65;1.00;;;;;;;-144.47;67.24;52991.16;5021433;28;20053;-67
2023/01/17 07:54:21;;;;;;;4.82;0.93;;;;;;;-144.47;67.41;52979.22;5006515;28;20065;-66
2023/01/17 07:56:46;;;;;;;7.28;0.88;;;;;;;-144.47;67.41;52993.13;5019539;28;20070;-64
2023/01/17 07:59:12;;;;;;;2.40;0.80;;;;;;;-144.47;67.55;52995.13;5026578;28;20664;-67
2023/01/17 08:01:38;;;;;;;2.25;0.98;;;;;;;-144.47;67.16;52957.38;5026820;28;20467;-65
2023/01/17 08:04:03;;;;;;;2.67;0.98;;;;;;;-144.47;66.86;52943.47;5027183;28;20018;-64
2023/01/17 08:06:29;;;;;;;2.00;1.00;;;;;;;-144.47;66.81;52971.28;5027200;28;20475;-65
2023/01/17 08:08:57;;;;;;;1.75;0.90;;;;;;;-144.47;66.97;52981.22;5026067;28;20032;-64
2023/01/17 08:11:23;;;;;;;2.72;1.10;;;;;;;-144.47;66.42;52989.16;5027766;28;20029;-66
2023/01/17 08:13:48;;;;;;;1.55;0.85;;;;;;;-144.47;66.13;52983.22;5028061;28;20399;-66
2023/01/17 08:16:14;;;;;;;2.15;0.80;;;;;;;-144.47;66.09;52983.22;5027818;28;20128;-66
2023/01/17 08:18:39;;;;;;;0.82;0.75;;;;;;;-144.47;66.00;52979.22;5027676;28;20757;-66
2023/01/17 08:21:13;;;;;;;2.50;0.90;;;;;;;-144.47;65.81;52967.31;5026662;28;20026;-67
2023/01/17 08:23:38;;;;;;;2.42;0.90;;;;;;;-144.47;65.65;52965.34;5027538;28;20025;-66
2023/01/17 08:26:04;;;;;;;3.28;1.02;;;;;;;-144.47;64.94;53009.03;5014260;28;20064;-65
2023/01/17 08:28:29;;;;;;;3.90;0.82;;;;;;;-144.47;64.21;52983.22;5026675;28;20052;-67
2023/01/17 08:30:54;;;;;;;2.47;0.90;;;;;;;-144.47;64.02;52963.34;5029378;28;20025;-64
2023/01/17 08:33:20;;;;;;;2.05;0.88;;;;;;;-144.47;63.89;52967.31;5030829;28;20025;-66
2023/01/17 08:35:54;;;;;;;3.78;1.80;;;;;;;-144.47;63.70;52973.28;5030674;28;20028;-66
2023/01/17 08:38:22;;;;;;;2.35;1.27;;;;;;;-144.47;64.61;52987.19;5031192;28;20033;-65
2023/01/17 08:40:50;;;;;;;1.75;0.93;;;;;;;-144.47;64.33;52965.34;5031095;28;20021;-65
2023/01/17 08:43:16;;;;;;;9.07;1.25;;;;;;;-144.47;63.90;52981.22;5029196;28;20598;-65
2023/01/17 08:45:47;;;;;;;3.35;1.05;;;;;;;-144.47;63.43;52971.28;5030590;28;20029;-66
2023/01/17 08:48:13;;;;;;;1.73;0.90;;;;;;;-144.47;63.40;52981.22;5030950;28;20398;-67
2023/01/17 08:50:38;;;;;;;3.55;0.73;;;;;;;-144.47;63.21;52955.41;5025550;28;20029;-64
2023/01/17 08:53:04;;;;;;;0.88;0.52;;;;;;;-144.47;63.02;52965.34;5030817;28;20029;-67
2023/01/17 08:55:29;;;;;;;2.08;1.23;;;;;;;-144.47;63.38;52975.25;5024340;28;20018;-65
2023/01/17 08:57:55;;;;;;;3.72;1.10;;;;;;;-144.47;63.34;52985.19;5030091;28;20033;-66
2023/01/17 09:00:21;;;;;;;5.80;1.00;;;;;;;-144.47;63.68;52951.44;5030935;28;20022;-65
2023/01/17 09:02:50;;;;;;;4.40;1.20;;;;;;;-144.47;63.65;52979.22;5030503;28;20121;-65
2023/01/17 09:05:15;;;;;;;1.25;0.77;;;;;;;-144.47;64.14;52973.28;5031129;28;20552;-65
2023/01/17 09:07:40;;;;;;;1.88;1.00;;;;;;;-144.47;64.16;52995.13;5030325;28;20108;-66
2023/01/17 09:10:06;;;;;;;1.60;0.93;;;;;;;-144.47;64.33;52951.44;5030029;28;20124;-65
2023/01/17 09:12:32;;;;;;;2.00;1.00;;;;;;;-144.47;64.32;52963.34;5029706;28;20112;-66
2023/01/17 09:14:57;;;;;;;2.92;1.10;;;;;;;-144.47;64.25;52989.16;5030663;28;20395;-65
2023/01/17 09:17:23;;;;;;;1.75;0.90;;;;;;;-144.47;64.36;52975.25;5028698;28;20029;-67
2023/01/17 09:19:48;;;;;;;1.92;0.80;;;;;;;-144.47;64.82;52951.44;5029516;28;20025;-66
2023/01/17 09:22:13;;;;;;;1.80;1.13;;;;;;;-144.47;64.76;52953.41;5030213;28;20028;-66
2023/01/17 09:24:39;;;;;;;1.38;0.90;;;;;;;-144.47;64.34;52995.13;5029999;28;20113;-65
2023/01/17 09:27:05;;;;;;;1.48;0.90;;;;;;;-144.47;63.89;52981.22;5029529;28;20025;-65
2023/01/17 09:29:31;;;;;;;3.08;1.02;;;;;;;-144.47;63.43;52973.28;5028984;28;20448;-66
2023/01/17 09:31:56;;;;;;;2.90;0.80;;;;;;;-144.47;63.26;52975.25;5029117;28;20116;-65
2023/01/17 09:34:23;;;;;;;2.28;1.08;;;;;;;-144.47;62.90;52983.22;5028789;28;20025;-65
2023/01/17 09:36:49;;;;;;;2.85;1.00;;;;;;;-144.47;62.67;52987.19;5029573;28;20086;-67
2023/01/17 09:39:14;;;;;;;1.73;1.05;;;;;;;-144.47;62.08;52979.22;5029926;28;20028;-65
2023/01/17 09:42:01;;;;;;;2.75;0.82;;;;;;;-144.47;61.66;52967.31;5028293;28;20049;-67
2023/01/17 09:44:32;;;;;;;2.97;1.13;;;;;;;-144.47;61.04;52951.44;5030294;28;20108;-66
2023/01/17 09:47:10;;;;;;;2.17;0.95;;;;;;;-144.47;60.64;52957.38;5030260;28;20036;-66
2023/01/17 09:49:40;;;;;;;2.97;1.10;;;;;;;-144.47;60.45;52949.44;5028463;28;20048;-65
2023/01/17 09:52:10;;;;;;;1.92;0.80;;;;;;;-144.47;59.77;52975.25;5030006;28;20330;-66
2023/01/17 09:54:41;;;;;;;1.85;0.95;;;;;;;-144.47;60.04;52971.28;5029938;28;20049;-66
2023/01/17 09:57:33;;;;;;;2.03;0.95;;;;;;;-144.47;59.81;52971.28;5029637;28;20125;-65
2023/01/17 10:00:11;;;;;;;1.27;0.90;;;;;;;-144.47;59.69;52975.25;5018808;28;20025;-66
2023/01/17 10:02:37;;;;;;;1.80;0.70;;;;;;;-144.47;59.61;52939.50;5029268;28;20037;-65
2023/01/17 10:05:05;;;;;;;1.70;0.90;;;;;;;-144.47;59.27;52959.38;5028229;28;20021;-67
2023/01/17 10:08:02;;;;;;;1.27;0.80;;;;;;;-144.47;58.98;52965.34;5028486;28;20060;-66
2023/01/17 10:10:40;;;;;;;1.83;0.80;;;;;;;-144.47;59.18;52945.47;5028898;28;20025;-66
2023/01/17 10:13:11;;;;;;;4.43;1.00;;;;;;;-144.47;58.98;52941.50;5028477;28;20037;-65
2023/01/17 10:16:06;;;;;;;1.77;0.93;;;;;;;-144.47;58.90;52939.50;5028462;28;20148;-68
2023/01/17 10:18:43;;;;;;;2.38;0.82;;;;;;;-144.47;58.72;52945.47;5028185;28;20430;-65
2023/01/17 10:21:23;;;;;;;2.30;0.88;;;;;;;-144.47;59.23;52947.47;5027721;28;20041;-65
2023/01/17 10:24:21;;;;;;;2.85;1.10;;;;;;;-144.47;59.40;52943.47;5029158;28;20032;-67
2023/01/17 10:26:52;;;;;;;1.00;0.80;;;;;;;-144.47;59.15;52983.22;5027818;28;20073;-67
2023/01/17 10:29:19;;;;;;;2.08;0.85;;;;;;;-144.47;59.53;52963.34;5023568;28;20493;-66
2023/01/17 10:31:53;;;;;;;1.38;0.90;;;;;;;-144.47;59.60;52955.41;5027724;28;20109;-66
2023/01/17 10:34:27;;;;;;;2.30;1.10;;;;;;;-144.47;59.64;52987.19;5023897;28;20087;-69
2023/01/17 10:37:02;;;;;;;7.22;1.20;;;;;;;-144.47;60.35;52965.34;5025708;28;20098;-67
2023/01/17 10:39:29;;;;;;;5.00;1.10;;;;;;;-144.47;60.87;52959.38;5028212;28;20089;-67
2023/01/17 10:42:13;;;;;;;1.48;0.93;;;;;;;-144.47;61.48;52961.34;5028133;28;20393;-67
2023/01/17 10:44:47;;;;;;;4.75;1.20;;;;;;;-144.47;61.35;52963.34;5024752;28;20119;-65
2023/01/17 10:47:23;;;;;;;2.28;1.10;;;;;;;-144.47;61.34;52923.63;5026792;28;20628;-65
2023/01/17 10:49:54;;;;;;;2.95;0.98;;;;;;;-144.47;61.20;52983.22;5026141;28;20755;-66
2023/01/17 10:52:31;;;;;;;0.98;0.70;;;;;;;-144.47;60.93;52949.44;5027856;28;20055;-68
2023/01/17 10:55:08;;;;;;;2.85;1.27;;;;;;;-144.47;60.96;52983.22;5028202;28;20029;-65
2023/01/17 10:57:41;;;;;;;4.07;0.98;;;;;;;-144.47;61.29;52973.28;5027188;28;20033;-64
2023/01/17 11:00:43;;;;;;;1.92;0.77;;;;;;;-144.47;61.61;52977.25;5027867;28;20025;-66
2023/01/17 11:03:14;;;;;;;3.70;1.17;;;;;;;-144.47;60.96;52973.28;5023467;28;20037;-66
2023/01/17 11:05:41;;;;;;;7.28;1.35;;;;;;;-144.47;61.04;52975.25;5025603;28;20025;-67
2023/01/17 11:08:08;;;;;;;3.10;1.20;;;;;;;-144.47;60.94;52975.25;5025742;28;20025;-66
2023/01/17 11:10:49;;;;;;;1.98;1.13;;;;;;;-144.47;61.11;52983.22;5026820;28;20039;-65
2023/01/17 11:13:20;;;;;;;1.30;0.80;;;;;;;-144.47;60.72;52959.38;5015878;28;20084;-66
2023/01/17 11:15:52;;;;;;;2.65;0.82;;;;;;;-144.47;60.83;52959.38;5024139;28;20072;-67
2023/01/17 11:18:19;;;;;;;9.68;1.20;;;;;;;-144.47;60.54;52947.47;5024509;28;20060;-66
2023/01/17 11:20:45;;;;;;;2.10;1.13;;;;;;;-144.47;60.37;52959.38;5027055;28;20026;-66
2023/01/17 11:23:15;;;;;;;5.07;1.20;;;;;;;-144.47;59.80;52977.25;5027693;28;20029;-65
2023/01/17 11:26:19;;;;;;;1.75;0.93;;;;;;;-144.47;59.87;52959.38;5026636;28;20028;-65
2023/01/17 11:28:45;;;;;;;2.22;1.00;;;;;;;-144.47;59.67;52945.47;5011318;28;20042;-66
2023/01/17 11:31:15;;;;;;;4.20;1.25;;;;;;;-144.47;59.42;52969.31;5026915;28;20087;-66
2023/01/17 11:33:46;;;;;;;1.92;0.90;;;;;;;-144.47;58.90;52943.47;5023549;28;20487;-66
2023/01/17 11:36:28;;;;;;;2.03;1.00;;;;;;;-144.47;58.73;52953.41;5028032;28;20447;-65
2023/01/17 11:38:54;;;;;;;1.25;0.82;;;;;;;-144.47;58.65;52963.34;5027929;28;20025;-64
2023/01/17 11:41:21;;;;;;;2.30;0.80;;;;;;;-144.47;58.81;52949.44;5028092;22;20104;-65
2023/01/17 11:43:55;;;;;;;7.28;1.30;;;;;;;-144.47;58.56;52951.44;5008307;28;20048;-63
2023/01/17 11:46:21;;;;;;;1.40;1.00;;;;;;;-144.47;58.85;52933.56;5008843;28;20053;-66
2023/01/17 11:48:50;;;;;;;3.67;1.08;;;;;;;-144.47;58.47;52957.38;5008473;28;20073;-65
2023/01/17 11:51:21;;;;;;;;;;;;;;;-144.47;58.59;52943.47;5009036;28;20088;-65
2023/01/17 11:53:47;;;;;;;2.50;0.85;;;;;;;-144.47;58.60;52955.41;5009075;28;20028;-65
2023/01/17 11:56:28;;;;;;;7.00;1.20;;;;;;;-144.47;58.59;52929.59;5009096;28;20214;-66
2023/01/17 11:59:16;;;;;;;2.50;1.13;;;;;;;-144.47;58.68;52949.44;4995782;28;20029;-66
2023/01/17 12:01:51;;;;;;;2.65;0.98;;;;;;;-144.47;58.31;52971.28;5008788;28;20038;-67
2023/01/17 12:04:29;;;;;;;2.38;0.90;;;;;;;-144.47;58.05;52947.47;5009277;28;20037;-62
2023/01/17 12:07:04;;;;;;;4.93;1.20;;;;;;;-144.47;57.26;52949.44;5012874;28;20030;-66
2023/01/17 12:09:42;;;;;;;3.75;0.80;;;;;;;-144.47;56.84;52959.38;5012918;28;20026;-65
2023/01/17 12:15:58;;;;;;;2.70;0.73;;;;;;;-144.47;56.80;52935.53;4949058;28;20038;-63
2023/01/17 12:18:29;;;;;;;1.77;0.90;;;;;;;-144.47;56.26;52939.50;4951635;28;20143;-67
2023/01/17 12:21:19;;;;;;;2.92;0.93;;;;;;;-144.47;56.07;52953.41;4994832;28;20045;-66
2023/01/17 12:24:02;;;;;;;0.95;0.70;;;;;;;-144.47;56.27;52927.59;5009400;28;20028;-64
2023/01/17 12:26:37;;;;;;;4.47;0.85;;;;;;;-144.47;56.65;52965.34;5012129;28;20040;-66
2023/01/17 12:29:14;;;;;;;1.90;0.80;;;;;;;-144.47;57.03;52931.56;5011342;28;20495;-67
2023/01/17 12:32:11;;;;;;;5.35;1.20;;;;;;;-144.47;57.09;52943.47;5012117;28;20084;-65
2023/01/17 12:34:49;;;;;;;2.25;0.90;;;;;;;-144.47;57.22;52975.25;4974192;28;20042;-63
2023/01/17 12:37:30;;;;;;;3.95;1.40;;;;;;;-144.47;57.39;52967.31;5012279;28;20030;-65
2023/01/17 12:40:02;;;;;;;1.85;0.85;;;;;;;-144.47;56.52;52961.34;5010496;28;20033;-67
2023/01/17 12:42:34;;;;;;;5.82;1.00;;;;;;;-144.47;56.42;52947.47;5011839;28;20042;-65
2023/01/17 12:45:05;;;;;;;1.70;0.77;;;;;;;-144.47;55.98;52955.41;5012210;28;20025;-66
2023/01/17 12:47:36;;;;;;;1.77;0.90;;;;;;;-144.47;55.25;52949.44;5011089;28;20403;-65
2023/01/17 12:50:27;;;;;;;1.13;0.73;;;;;;;-144.47;55.10;52941.50;5012060;28;20029;-65